createdAt,value
2022-10-16T00:01:30.417Z,79.35
2022-10-16T00:03:59.966Z,79.10
2022-10-16T00:06:28.859Z,79.24
2022-10-16T00:08:57.836Z,79.23
2022-10-16T00:11:30.122Z,79.18
2022-10-16T00:14:01.427Z,79.25
2022-10-16T00:16:30.487Z,79.25
2022-10-16T00:18:59.073Z,79.36
2022-10-16T00:21:29.687Z,79.60
2022-10-16T00:24:01.032Z,79.68
2022-10-16T00:26:32.406Z,79.83
2022-10-16T00:29:01.015Z,79.66
2022-10-16T00:31:29.627Z,79.90
2022-10-16T00:33:57.995Z,80.25
2022-10-16T00:36:28.632Z,80.14
2022-10-16T00:41:35.625Z,80.22
2022-10-16T00:44:06.223Z,80.29
2022-10-16T00:46:39.525Z,80.56
2022-10-16T00:49:10.838Z,80.68
2022-10-16T00:51:41.910Z,81.12
2022-10-16T00:54:13.929Z,81.17
2022-10-16T00:56:44.469Z,81.32
2022-10-16T00:59:17.740Z,81.48
2022-10-16T01:01:45.982Z,81.82
2022-10-16T01:04:14.576Z,81.64
2022-10-16T01:06:49.137Z,81.80
2022-10-16T01:09:23.390Z,81.85
2022-10-16T01:12:06.848Z,81.99
2022-10-16T01:14:43.526Z,82.02
2022-10-16T01:17:16.982Z,82.17
2022-10-16T01:20:02.547Z,81.77
2022-10-16T01:22:39.621Z,81.78
2022-10-16T01:25:14.352Z,81.96
2022-10-16T01:27:46.895Z,82.03
2022-10-16T01:30:19.783Z,81.88
2022-10-16T01:32:51.956Z,82.01
2022-10-16T01:35:24.399Z,82.26
2022-10-16T01:37:55.196Z,82.24
2022-10-16T01:40:26.495Z,82.22
2022-10-16T01:43:01.527Z,82.38
2022-10-16T01:45:34.088Z,82.15
2022-10-16T01:48:06.106Z,82.25
2022-10-16T01:50:38.057Z,82.46
2022-10-16T01:53:07.792Z,82.38
2022-10-16T01:55:45.939Z,82.29
2022-10-16T01:58:16.803Z,82.39
2022-10-16T02:00:49.178Z,82.36
2022-10-16T02:03:19.721Z,82.73
2022-10-16T02:05:51.369Z,82.67
2022-10-16T02:08:20.242Z,82.59
2022-10-16T02:10:48.474Z,82.70
2022-10-16T02:13:23.197Z,82.73
2022-10-16T02:15:51.421Z,82.88
2022-10-16T02:18:22.996Z,82.72
2022-10-16T02:20:57.673Z,82.57
2022-10-16T02:23:34.620Z,82.43
2022-10-16T02:26:07.167Z,82.54
2022-10-16T02:28:40.018Z,82.82
2022-10-16T02:31:13.973Z,82.72
2022-10-16T02:33:44.640Z,82.27
2022-10-16T02:36:13.067Z,82.61
2022-10-16T02:38:43.151Z,82.59
2022-10-16T02:41:12.539Z,82.49
2022-10-16T02:43:42.667Z,82.32
2022-10-16T02:46:10.897Z,82.54
2022-10-16T02:48:40.304Z,82.31
2022-10-16T02:51:09.665Z,82.32
2022-10-16T02:53:37.863Z,82.56
2022-10-16T02:56:06.525Z,82.61
2022-10-16T02:58:35.040Z,82.46
2022-10-16T03:01:05.149Z,82.56
2022-10-16T03:03:33.455Z,82.57
2022-10-16T03:06:01.655Z,82.63
2022-10-16T03:08:31.101Z,82.69
2022-10-16T03:10:59.337Z,82.50
2022-10-16T03:13:31.061Z,82.74
2022-10-16T03:15:59.515Z,82.72
2022-10-16T03:18:29.097Z,82.50
2022-10-16T03:20:57.586Z,82.72
2022-10-16T03:23:26.243Z,82.76
2022-10-16T03:25:55.089Z,83.08
2022-10-16T03:28:23.342Z,82.96
2022-10-16T03:30:52.595Z,83.18
2022-10-16T03:33:20.993Z,82.97
2022-10-16T03:35:55.765Z,82.93
2022-10-16T03:38:24.786Z,82.93
2022-10-16T03:40:53.474Z,82.89
2022-10-16T03:43:21.699Z,82.99
2022-10-16T03:45:49.940Z,83.02
2022-10-16T03:48:18.110Z,82.95
2022-10-16T03:50:47.091Z,82.98
2022-10-16T03:53:17.211Z,83.09
2022-10-16T03:55:45.862Z,83.11
2022-10-16T03:58:14.350Z,83.06
2022-10-16T04:00:43.699Z,83.00
2022-10-16T04:03:12.242Z,83.15
2022-10-16T04:05:40.669Z,83.18
2022-10-16T04:08:09.238Z,83.17
2022-10-16T04:10:39.341Z,83.02
2022-10-16T04:13:07.631Z,83.35
2022-10-16T04:15:35.837Z,83.56
2022-10-16T04:18:04.054Z,83.64
2022-10-16T04:20:32.270Z,83.71
2022-10-16T04:23:00.429Z,83.98
2022-10-16T04:25:28.634Z,83.68
2022-10-16T04:27:58.655Z,83.74
2022-10-16T04:30:27.521Z,83.62
2022-10-16T04:32:55.885Z,84.05
2022-10-16T04:35:24.538Z,84.30
2022-10-16T04:37:52.723Z,84.55
2022-10-16T04:40:21.253Z,84.42
2022-10-16T04:42:49.500Z,84.53
2022-10-16T04:45:19.510Z,84.35
2022-10-16T04:47:47.693Z,84.29
2022-10-16T04:50:15.846Z,84.44
2022-10-16T04:53:02.776Z,84.58
2022-10-16T04:55:30.986Z,84.13
2022-10-16T04:57:59.374Z,84.30
2022-10-16T05:00:29.326Z,84.58
2022-10-16T05:02:58.225Z,84.64
2022-10-16T05:05:26.728Z,84.76
2022-10-16T05:07:55.157Z,85.09
2022-10-16T05:10:23.386Z,84.74
2022-10-16T05:12:52.321Z,84.80
2022-10-16T05:15:21.014Z,84.72
2022-10-16T05:17:55.165Z,84.58
2022-10-16T05:20:24.561Z,84.39
2022-10-16T05:22:52.807Z,84.37
2022-10-16T05:25:20.974Z,84.50
2022-10-16T05:27:50.298Z,84.50
2022-10-16T05:30:19.167Z,84.42
2022-10-16T05:32:50.703Z,84.35
2022-10-16T05:35:20.459Z,84.42
2022-10-16T05:37:49.845Z,84.23
2022-10-16T05:40:19.290Z,84.47
2022-10-16T05:42:47.432Z,85.01
2022-10-16T05:45:15.907Z,85.24
2022-10-16T05:47:44.048Z,85.43
2022-10-16T05:50:13.686Z,85.45
2022-10-16T05:52:41.895Z,85.60
2022-10-16T05:55:10.745Z,86.03
2022-10-16T05:57:38.913Z,86.54
2022-10-16T06:00:08.386Z,86.61
2022-10-16T06:02:40.928Z,86.87
2022-10-16T06:05:09.248Z,86.94
2022-10-16T06:07:38.971Z,86.58
2022-10-16T06:10:08.596Z,86.79
2022-10-16T06:12:36.743Z,86.47
2022-10-16T06:15:05.494Z,86.70
2022-10-16T06:17:35.356Z,86.72
2022-10-16T06:20:03.559Z,86.66
2022-10-16T06:22:32.006Z,86.79
2022-10-16T06:25:01.962Z,86.57
2022-10-16T06:27:30.516Z,86.62
2022-10-16T06:29:58.664Z,86.41
2022-10-16T06:32:27.085Z,86.51
2022-10-16T06:34:56.402Z,86.09
2022-10-16T06:37:26.189Z,86.34
2022-10-16T06:39:54.595Z,86.17
2022-10-16T06:42:24.319Z,86.17
2022-10-16T06:44:53.072Z,85.79
2022-10-16T06:47:23.231Z,86.14
2022-10-16T06:49:54.313Z,86.02
2022-10-16T06:52:22.710Z,86.26
2022-10-16T06:54:52.129Z,86.30
2022-10-16T06:57:20.610Z,86.49
2022-10-16T06:59:55.147Z,86.07
2022-10-16T07:02:23.838Z,86.07
2022-10-16T07:04:52.772Z,86.01
2022-10-16T07:07:21.010Z,86.12
2022-10-16T07:09:49.740Z,85.92
2022-10-16T07:12:17.992Z,85.68
2022-10-16T07:14:46.625Z,85.68
2022-10-16T07:17:16.218Z,85.29
2022-10-16T07:19:44.435Z,85.28
2022-10-16T07:22:12.741Z,85.17
2022-10-16T07:24:41.265Z,85.03
2022-10-16T07:27:09.686Z,84.81
2022-10-16T07:29:37.958Z,84.70
2022-10-16T07:32:06.638Z,84.41
2022-10-16T07:34:36.482Z,84.55
2022-10-16T07:37:04.911Z,84.46
2022-10-16T07:39:34.707Z,84.30
2022-10-16T07:42:03.330Z,84.12
2022-10-16T07:44:32.705Z,84.33
2022-10-16T07:47:01.154Z,84.38
2022-10-16T07:49:29.345Z,84.72
2022-10-16T07:51:58.860Z,84.31
2022-10-16T07:54:27.655Z,84.25
2022-10-16T07:56:56.312Z,84.16
2022-10-16T07:59:24.894Z,83.84
2022-10-16T08:01:53.897Z,83.66
2022-10-16T08:04:22.595Z,83.77
2022-10-16T08:06:50.900Z,83.92
2022-10-16T08:09:20.505Z,83.64
2022-10-16T08:11:48.943Z,83.79
2022-10-16T08:14:17.104Z,84.04
2022-10-16T08:16:46.016Z,84.06
2022-10-16T08:19:15.016Z,84.19
2022-10-16T08:21:44.324Z,83.95
2022-10-16T08:24:13.022Z,83.91
2022-10-16T08:26:43.298Z,83.74
2022-10-16T08:29:11.595Z,83.85
2022-10-16T08:31:40.162Z,83.54
2022-10-16T08:34:08.362Z,83.73
2022-10-16T08:36:36.545Z,83.54
2022-10-16T08:39:05.524Z,83.22
2022-10-16T08:42:04.095Z,83.70
2022-10-16T08:45:01.889Z,83.98
2022-10-16T08:47:44.599Z,84.32
2022-10-16T08:50:16.084Z,84.00
2022-10-16T08:52:46.557Z,84.20
2022-10-16T08:55:33.365Z,84.43
2022-10-16T08:58:03.790Z,85.09
2022-10-16T09:00:32.874Z,85.25
2022-10-16T09:03:12.691Z,85.01
2022-10-16T09:05:58.853Z,84.64
2022-10-16T09:08:34.669Z,84.73
2022-10-16T09:11:09.213Z,85.02
2022-10-16T09:13:49.728Z,84.69
2022-10-16T09:16:25.419Z,84.77
2022-10-16T09:19:00.985Z,84.80
2022-10-16T09:21:32.093Z,84.50
2022-10-16T09:24:02.466Z,84.28
2022-10-16T09:26:30.761Z,84.11
2022-10-16T09:29:00.564Z,84.06
2022-10-16T09:31:29.112Z,83.72
2022-10-16T09:34:00.713Z,83.63
2022-10-16T09:36:31.364Z,83.87
2022-10-16T09:39:07.645Z,83.80
2022-10-16T09:41:38.925Z,83.63
2022-10-16T09:44:20.085Z,83.63
2022-10-16T09:46:48.863Z,83.60
2022-10-16T09:49:25.846Z,83.46
2022-10-16T09:52:06.161Z,83.76
2022-10-16T09:54:34.652Z,83.56
2022-10-16T09:57:09.618Z,83.20
2022-10-16T09:59:48.243Z,83.49
2022-10-16T10:02:18.475Z,83.39
2022-10-16T10:04:52.421Z,82.91
2022-10-16T10:07:27.255Z,82.74
2022-10-16T10:09:56.950Z,82.46
2022-10-16T10:12:27.728Z,82.24
2022-10-16T10:14:59.324Z,82.59
2022-10-16T10:17:29.869Z,82.77
2022-10-16T10:20:01.664Z,83.58
2022-10-16T10:22:41.930Z,83.75
2022-10-16T10:25:35.631Z,83.72
2022-10-16T10:28:44.815Z,84.41
2022-10-16T10:31:19.428Z,84.11
2022-10-16T10:33:52.534Z,84.23
2022-10-16T10:36:35.009Z,84.10
2022-10-16T10:39:08.121Z,84.59
2022-10-16T10:42:11.400Z,84.82
2022-10-16T10:44:53.949Z,84.46
2022-10-16T10:47:29.277Z,84.58
2022-10-16T10:50:09.507Z,83.88
2022-10-16T10:52:47.134Z,84.72
2022-10-16T10:55:26.825Z,85.16
2022-10-16T10:58:15.803Z,85.61
2022-10-16T11:00:55.642Z,86.00
2022-10-16T11:03:43.588Z,86.25
2022-10-16T11:06:14.782Z,86.39
2022-10-16T11:08:49.126Z,86.66
2022-10-16T11:11:23.897Z,86.87
2022-10-16T11:14:00.790Z,86.78
2022-10-16T11:16:31.741Z,86.88
2022-10-16T11:19:14.190Z,86.58
2022-10-16T11:21:51.508Z,86.81
2022-10-16T11:24:25.444Z,87.15
2022-10-16T11:26:56.379Z,87.15
2022-10-16T11:29:28.761Z,87.17
2022-10-16T11:31:59.669Z,88.17
2022-10-16T11:34:36.976Z,87.92
2022-10-16T11:37:12.056Z,87.82
2022-10-16T11:39:43.056Z,88.30
2022-10-16T11:42:13.869Z,88.08
2022-10-16T11:44:53.463Z,87.84
2022-10-16T11:50:28.921Z,87.44
2022-10-16T11:53:03.764Z,87.39
2022-10-16T11:55:36.515Z,87.65
2022-10-16T11:58:08.358Z,87.51
2022-10-16T12:00:42.865Z,87.32
2022-10-16T12:03:20.547Z,87.30
2022-10-16T12:06:15.361Z,86.92
2022-10-16T12:08:45.598Z,87.20
2022-10-16T12:11:37.944Z,86.88
2022-10-16T12:14:09.307Z,87.27
2022-10-16T12:16:40.330Z,87.05
2022-10-16T12:19:15.022Z,87.21
2022-10-16T12:21:47.167Z,86.75
2022-10-16T12:24:30.050Z,87.77
2022-10-16T12:26:58.545Z,88.20
2022-10-16T12:29:35.522Z,89.02
2022-10-16T12:32:05.501Z,89.06
2022-10-16T12:34:41.955Z,89.18
2022-10-16T12:37:17.322Z,89.31
2022-10-16T12:39:46.749Z,89.64
2022-10-16T12:42:35.824Z,89.54
2022-10-16T12:45:15.711Z,89.87
2022-10-16T12:47:52.491Z,90.12
2022-10-16T12:50:36.572Z,90.16
2022-10-16T12:53:20.003Z,89.99
2022-10-16T12:56:03.192Z,90.87
2022-10-16T12:59:03.913Z,91.32
2022-10-16T13:01:53.541Z,91.28
2022-10-16T13:04:49.357Z,91.68
2022-10-16T13:07:34.026Z,91.62
2022-10-16T13:10:17.140Z,91.99
2022-10-16T13:13:11.842Z,91.91
2022-10-16T13:15:58.714Z,91.96
2022-10-16T13:18:35.420Z,92.09
2022-10-16T13:21:13.663Z,92.84
2022-10-16T13:23:55.616Z,92.61
2022-10-16T13:26:36.778Z,92.13
2022-10-16T13:29:06.744Z,91.76
2022-10-16T13:31:35.544Z,91.77
2022-10-16T13:34:07.785Z,92.40
2022-10-16T13:36:38.168Z,92.03
2022-10-16T13:39:18.337Z,91.39
2022-10-16T13:41:48.073Z,91.33
2022-10-16T13:44:20.768Z,91.31
2022-10-16T13:47:01.398Z,90.64
2022-10-16T13:49:29.954Z,90.44
2022-10-16T13:51:59.285Z,90.50
2022-10-16T13:54:29.798Z,90.19
2022-10-16T13:57:22.640Z,89.86
2022-10-16T13:59:56.227Z,90.17
2022-10-16T14:02:29.787Z,89.74
2022-10-16T14:04:59.840Z,89.49
2022-10-16T14:07:30.577Z,89.29
2022-10-16T14:10:03.784Z,89.48
2022-10-16T14:12:34.223Z,89.14
2022-10-16T14:15:03.705Z,89.22
2022-10-16T14:17:35.386Z,89.12
2022-10-16T14:20:07.225Z,89.07
2022-10-16T14:22:37.764Z,88.92
2022-10-16T14:25:27.523Z,89.03
2022-10-16T14:30:38.125Z,89.50
2022-10-16T14:33:08.797Z,89.33
2022-10-16T14:35:39.891Z,89.70
2022-10-16T14:38:19.900Z,89.54
2022-10-16T14:40:51.370Z,89.40
2022-10-16T14:43:24.417Z,89.53
2022-10-16T14:45:55.162Z,89.90
2022-10-16T14:48:24.530Z,90.09
2022-10-16T14:50:53.149Z,90.31
2022-10-16T14:53:21.567Z,90.11
2022-10-16T14:55:50.500Z,90.41
2022-10-16T14:58:23.495Z,90.58
2022-10-16T15:00:52.127Z,90.82
2022-10-16T15:03:20.607Z,90.72
2022-10-16T15:05:49.019Z,90.64
2022-10-16T15:08:17.579Z,90.35
2022-10-16T15:10:46.677Z,90.17
2022-10-16T15:13:16.244Z,89.89
2022-10-16T15:15:48.596Z,89.44
2022-10-16T15:18:23.933Z,89.15
2022-10-16T15:20:52.903Z,89.18
2022-10-16T15:23:22.943Z,88.88
2022-10-16T15:25:53.046Z,89.30
2022-10-16T15:28:23.604Z,88.75
2022-10-16T15:30:54.069Z,89.36
2022-10-16T15:33:24.463Z,88.96
2022-10-16T15:35:54.495Z,89.11
2022-10-16T15:38:24.790Z,88.92
2022-10-16T15:40:53.082Z,89.34
2022-10-16T15:43:21.633Z,89.65
2022-10-16T15:46:01.048Z,89.54
2022-10-16T15:48:30.468Z,89.72
2022-10-16T15:50:58.799Z,90.09
2022-10-16T15:53:27.604Z,90.03
2022-10-16T15:55:57.221Z,89.76
2022-10-16T15:58:25.793Z,90.07
2022-10-16T16:00:59.101Z,90.28
2022-10-16T16:03:28.058Z,90.22
2022-10-16T16:05:56.858Z,89.85
2022-10-16T16:08:25.493Z,90.02
2022-10-16T16:11:00.928Z,89.72
2022-10-16T16:13:29.419Z,89.90
2022-10-16T16:15:59.477Z,90.29
2022-10-16T16:18:28.083Z,90.22
2022-10-16T16:20:56.702Z,90.44
2022-10-16T16:23:25.596Z,90.63
2022-10-16T16:26:10.873Z,90.56
2022-10-16T16:28:39.496Z,90.52
2022-10-16T16:31:09.854Z,90.78
2022-10-16T16:33:38.063Z,90.93
2022-10-16T16:36:14.523Z,90.80
2022-10-16T16:38:44.197Z,90.77
2022-10-16T16:41:15.411Z,90.72
2022-10-16T16:43:44.456Z,90.12
2022-10-16T16:46:14.326Z,90.24
2022-10-16T16:48:44.633Z,90.32
2022-10-16T16:51:16.355Z,90.18
2022-10-16T16:53:47.231Z,89.77
2022-10-16T16:56:15.645Z,89.83
2022-10-16T16:58:46.970Z,89.97
2022-10-16T17:01:21.134Z,90.05
2022-10-16T17:03:53.157Z,90.03
2022-10-16T17:06:22.535Z,90.06
2022-10-16T17:08:51.661Z,89.93
2022-10-16T17:11:22.647Z,90.08
2022-10-16T17:13:55.529Z,90.10
2022-10-16T17:16:29.300Z,89.99
2022-10-16T17:18:58.605Z,90.03
2022-10-16T17:21:30.615Z,89.99
2022-10-16T17:23:59.414Z,89.94
2022-10-16T17:26:27.818Z,89.58
2022-10-16T17:28:58.516Z,89.61
2022-10-16T17:31:29.743Z,89.69
2022-10-16T17:33:59.191Z,89.80
2022-10-16T17:36:29.708Z,90.02
2022-10-16T17:39:01.762Z,90.06
2022-10-16T17:41:30.345Z,90.23
2022-10-16T17:43:58.703Z,89.98
2022-10-16T17:46:28.630Z,89.63
2022-10-16T17:48:57.640Z,90.26
2022-10-16T17:51:30.647Z,89.86
2022-10-16T17:54:01.379Z,90.26
2022-10-16T17:56:30.165Z,89.91
2022-10-16T17:59:00.729Z,89.78
2022-10-16T18:01:32.283Z,89.62
2022-10-16T18:04:02.271Z,89.65
2022-10-16T18:06:31.878Z,89.42
2022-10-16T18:09:01.297Z,89.65
2022-10-16T18:11:30.105Z,90.51
2022-10-16T18:14:00.302Z,89.99
2022-10-16T18:16:32.532Z,89.65
2022-10-16T18:19:00.725Z,89.77
2022-10-16T18:21:29.789Z,89.86
2022-10-16T18:24:00.230Z,89.87
2022-10-16T18:26:29.199Z,89.72
2022-10-16T18:29:00.767Z,89.68
2022-10-16T18:31:31.470Z,89.52
2022-10-16T18:34:00.004Z,89.38
2022-10-16T18:36:30.692Z,89.47
2022-10-16T18:39:00.055Z,89.28
2022-10-16T18:41:29.351Z,89.52
2022-10-16T18:43:57.784Z,89.39
2022-10-16T18:46:27.274Z,89.28
2022-10-16T18:48:58.210Z,89.21
2022-10-16T18:51:28.981Z,89.05
2022-10-16T18:54:00.124Z,89.17
2022-10-16T18:56:30.439Z,89.30
2022-10-16T18:59:01.684Z,89.59
2022-10-16T19:01:32.530Z,89.64
2022-10-16T19:04:04.516Z,89.91
2022-10-16T19:06:36.453Z,89.74
2022-10-16T19:09:05.343Z,89.89
2022-10-16T19:11:37.959Z,89.53
2022-10-16T19:14:09.041Z,89.69
2022-10-16T19:16:38.961Z,89.39
2022-10-16T19:19:11.414Z,89.59
2022-10-16T19:21:41.282Z,89.84
2022-10-16T19:24:13.124Z,89.77
2022-10-16T19:26:42.189Z,89.23
2022-10-16T19:29:11.192Z,89.17
2022-10-16T19:31:40.193Z,89.07
2022-10-16T19:34:11.507Z,89.20
2022-10-16T19:36:41.905Z,88.91
2022-10-16T19:39:14.716Z,89.03
2022-10-16T19:41:43.881Z,88.70
2022-10-16T19:44:14.689Z,88.80
2022-10-16T19:46:43.731Z,88.92
2022-10-16T19:49:14.786Z,89.02
2022-10-16T19:51:42.966Z,89.53
2022-10-16T19:54:14.325Z,88.89
2022-10-16T19:56:43.423Z,89.13
2022-10-16T19:59:16.407Z,89.07
2022-10-16T20:01:44.756Z,89.37
2022-10-16T20:04:14.540Z,89.19
2022-10-16T20:06:43.272Z,89.31
2022-10-16T20:09:11.608Z,89.40
2022-10-16T20:11:39.864Z,88.94
2022-10-16T20:14:08.992Z,89.19
2022-10-16T20:16:37.402Z,89.43
2022-10-16T20:19:05.845Z,89.42
2022-10-16T20:21:38.221Z,89.44
2022-10-16T20:24:06.688Z,89.70
2022-10-16T20:26:35.902Z,89.59
2022-10-16T20:29:05.615Z,89.40
2022-10-16T20:31:35.016Z,89.53
2022-10-16T20:34:06.091Z,89.76
2022-10-16T20:36:37.213Z,89.18
2022-10-16T20:39:06.753Z,89.17
2022-10-16T20:41:35.674Z,89.20
2022-10-16T20:44:05.031Z,88.99
2022-10-16T20:46:33.606Z,89.07
2022-10-16T20:49:10.819Z,88.88
2022-10-16T20:51:42.811Z,88.75
2022-10-16T20:54:13.033Z,88.76
2022-10-16T20:56:42.638Z,89.10
2022-10-16T20:59:13.209Z,88.99
2022-10-16T21:01:42.455Z,88.76
2022-10-16T21:04:11.230Z,88.40
2022-10-16T21:06:42.212Z,88.69
2022-10-16T21:09:11.213Z,88.43
2022-10-16T21:11:39.988Z,88.38
2022-10-16T21:14:09.984Z,88.20
2022-10-16T21:16:38.724Z,88.40
2022-10-16T21:19:07.540Z,88.25
2022-10-16T21:21:38.016Z,88.29
2022-10-16T21:24:12.221Z,88.17
2022-10-16T21:26:43.658Z,87.97
2022-10-16T21:29:12.056Z,87.98
2022-10-16T21:31:40.247Z,87.97
2022-10-16T21:34:09.409Z,87.79
2022-10-16T21:36:40.538Z,88.01
2022-10-16T21:39:12.209Z,87.77
2022-10-16T21:41:41.619Z,88.23
2022-10-16T21:44:10.228Z,87.72
2022-10-16T21:46:40.562Z,87.92
2022-10-16T21:49:12.426Z,87.67
2022-10-16T21:51:44.327Z,87.43
2022-10-16T21:54:16.783Z,87.50
2022-10-16T21:56:45.307Z,87.31
2022-10-16T21:59:14.938Z,87.31
2022-10-16T22:01:44.646Z,87.22
2022-10-16T22:04:13.150Z,87.08
2022-10-16T22:06:41.454Z,86.96
2022-10-16T22:09:12.830Z,86.88
2022-10-16T22:11:45.198Z,86.94
2022-10-16T22:14:15.535Z,86.95
2022-10-16T22:16:44.645Z,87.32
2022-10-16T22:19:15.811Z,86.96
2022-10-16T22:21:46.120Z,87.30
2022-10-16T22:24:15.637Z,87.24
2022-10-16T22:26:45.322Z,87.23
2022-10-16T22:29:15.230Z,86.90
2022-10-16T22:31:44.178Z,87.52
2022-10-16T22:34:15.052Z,87.35
2022-10-16T22:36:43.541Z,87.80
2022-10-16T22:39:12.029Z,87.89
2022-10-16T22:41:40.806Z,87.84
2022-10-16T22:44:13.420Z,87.75
2022-10-16T22:46:42.314Z,87.65
2022-10-16T22:49:10.932Z,87.81
2022-10-16T22:51:39.254Z,87.83
2022-10-16T22:54:07.492Z,87.99
2022-10-16T22:56:35.813Z,87.85
2022-10-16T22:59:04.147Z,87.91
2022-10-16T23:01:36.167Z,87.85
2022-10-16T23:04:05.200Z,87.82
2022-10-16T23:06:33.876Z,87.97
2022-10-16T23:09:03.353Z,88.16
2022-10-16T23:11:32.031Z,87.86
2022-10-16T23:14:00.249Z,87.95
2022-10-16T23:16:28.482Z,87.65
2022-10-16T23:18:59.279Z,88.09
2022-10-16T23:21:29.812Z,87.73
2022-10-16T23:23:58.300Z,87.56
2022-10-16T23:26:28.045Z,87.46
2022-10-16T23:28:58.060Z,87.39
2022-10-16T23:31:26.847Z,87.52
2022-10-16T23:33:55.178Z,87.37
2022-10-16T23:36:25.588Z,87.55
2022-10-16T23:38:55.147Z,87.52
2022-10-16T23:41:23.591Z,87.54
2022-10-16T23:43:52.622Z,87.52
2022-10-16T23:46:21.146Z,87.34
2022-10-16T23:48:49.467Z,87.51
2022-10-16T23:51:17.855Z,87.77
2022-10-16T23:53:48.103Z,88.01
2022-10-16T23:56:16.602Z,87.75
2022-10-16T23:58:45.639Z,87.84
